sensor_id;sensor_type;location;lat;lon;timestamp;P1;durP1;ratioP1;P2;durP2;ratioP2
4754;SDS011;2391;47.212;7.542;2023-11-21T00:02:21;2.80;;;0.70;;
4754;SDS011;2391;47.212;7.542;2023-11-21T00:04:47;5.03;;;1.40;;
4754;SDS011;2391;47.212;7.542;2023-11-21T00:07:14;2.60;;;0.70;;
4754;SDS011;2391;47.212;7.542;2023-11-21T00:09:40;2.83;;;0.60;;
4754;SDS011;2391;47.212;7.542;2023-11-21T00:12:07;2.90;;;0.63;;
4754;SDS011;2391;47.212;7.542;2023-11-21T00:14:37;3.27;;;0.80;;
4754;SDS011;2391;47.212;7.542;2023-11-21T00:17:06;4.70;;;0.90;;
4754;SDS011;2391;47.212;7.542;2023-11-21T00:19:32;3.90;;;0.67;;
4754;SDS011;2391;47.212;7.542;2023-11-21T00:22:01;0.90;;;0.57;;
4754;SDS011;2391;47.212;7.542;2023-11-21T00:24:27;1.90;;;0.53;;
4754;SDS011;2391;47.212;7.542;2023-11-21T00:26:52;1.33;;;0.60;;
4754;SDS011;2391;47.212;7.542;2023-11-21T00:29:18;1.40;;;0.70;;
4754;SDS011;2391;47.212;7.542;2023-11-21T00:31:44;1.00;;;0.50;;
4754;SDS011;2391;47.212;7.542;2023-11-21T00:34:11;0.60;;;0.60;;
4754;SDS011;2391;47.212;7.542;2023-11-21T00:36:37;3.90;;;0.60;;
4754;SDS011;2391;47.212;7.542;2023-11-21T00:39:03;3.67;;;1.03;;
4754;SDS011;2391;47.212;7.542;2023-11-21T00:41:31;4.47;;;0.63;;
4754;SDS011;2391;47.212;7.542;2023-11-21T00:43:57;2.13;;;0.60;;
4754;SDS011;2391;47.212;7.542;2023-11-21T00:46:24;6.57;;;0.87;;
4754;SDS011;2391;47.212;7.542;2023-11-21T00:48:52;0.97;;;0.50;;
4754;SDS011;2391;47.212;7.542;2023-11-21T00:51:19;1.90;;;0.70;;
4754;SDS011;2391;47.212;7.542;2023-11-21T00:53:46;1.50;;;0.90;;
4754;SDS011;2391;47.212;7.542;2023-11-21T00:56:13;1.23;;;0.73;;
4754;SDS011;2391;47.212;7.542;2023-11-21T00:58:39;2.40;;;0.80;;
4754;SDS011;2391;47.212;7.542;2023-11-21T01:01:07;1.33;;;0.80;;
4754;SDS011;2391;47.212;7.542;2023-11-21T01:03:32;3.83;;;0.83;;
4754;SDS011;2391;47.212;7.542;2023-11-21T01:05:58;3.17;;;0.73;;
4754;SDS011;2391;47.212;7.542;2023-11-21T01:08:24;1.63;;;0.60;;
4754;SDS011;2391;47.212;7.542;2023-11-21T01:10:50;2.67;;;0.80;;
4754;SDS011;2391;47.212;7.542;2023-11-21T01:13:16;3.53;;;0.80;;
4754;SDS011;2391;47.212;7.542;2023-11-21T01:15:42;8.87;;;0.80;;
4754;SDS011;2391;47.212;7.542;2023-11-21T01:18:08;4.13;;;0.70;;
4754;SDS011;2391;47.212;7.542;2023-11-21T01:20:34;3.37;;;0.70;;
4754;SDS011;2391;47.212;7.542;2023-11-21T01:23:00;2.60;;;0.63;;
4754;SDS011;2391;47.212;7.542;2023-11-21T01:25:26;4.03;;;0.63;;
4754;SDS011;2391;47.212;7.542;2023-11-21T01:27:51;2.80;;;0.67;;
4754;SDS011;2391;47.212;7.542;2023-11-21T01:30:17;1.97;;;0.60;;
4754;SDS011;2391;47.212;7.542;2023-11-21T01:32:43;3.07;;;0.50;;
4754;SDS011;2391;47.212;7.542;2023-11-21T01:35:09;1.60;;;0.70;;
4754;SDS011;2391;47.212;7.542;2023-11-21T01:37:36;0.90;;;0.60;;
4754;SDS011;2391;47.212;7.542;2023-11-21T01:40:03;1.03;;;0.50;;
4754;SDS011;2391;47.212;7.542;2023-11-21T01:42:31;4.37;;;0.60;;
4754;SDS011;2391;47.212;7.542;2023-11-21T01:44:56;0.80;;;0.50;;
4754;SDS011;2391;47.212;7.542;2023-11-21T01:47:22;3.43;;;0.90;;
4754;SDS011;2391;47.212;7.542;2023-11-21T01:49:48;2.83;;;0.90;;
4754;SDS011;2391;47.212;7.542;2023-11-21T01:52:13;6.87;;;0.60;;
4754;SDS011;2391;47.212;7.542;2023-11-21T01:54:40;2.13;;;0.63;;
4754;SDS011;2391;47.212;7.542;2023-11-21T01:57:07;0.60;;;0.50;;
4754;SDS011;2391;47.212;7.542;2023-11-21T01:59:36;4.13;;;0.73;;
4754;SDS011;2391;47.212;7.542;2023-11-21T02:02:07;1.33;;;0.60;;
4754;SDS011;2391;47.212;7.542;2023-11-21T02:04:32;4.40;;;0.70;;
4754;SDS011;2391;47.212;7.542;2023-11-21T02:06:58;3.40;;;0.90;;
4754;SDS011;2391;47.212;7.542;2023-11-21T02:09:27;2.70;;;0.60;;
4754;SDS011;2391;47.212;7.542;2023-11-21T02:11:57;1.50;;;0.70;;
4754;SDS011;2391;47.212;7.542;2023-11-21T02:14:24;2.00;;;0.50;;
4754;SDS011;2391;47.212;7.542;2023-11-21T02:16:52;0.60;;;0.60;;
4754;SDS011;2391;47.212;7.542;2023-11-21T02:19:19;2.80;;;0.57;;
4754;SDS011;2391;47.212;7.542;2023-11-21T02:21:55;1.43;;;0.60;;
4754;SDS011;2391;47.212;7.542;2023-11-21T02:24:30;4.40;;;0.60;;
4754;SDS011;2391;47.212;7.542;2023-11-21T02:26:57;0.50;;;0.50;;
4754;SDS011;2391;47.212;7.542;2023-11-21T02:29:23;1.67;;;0.63;;
4754;SDS011;2391;47.212;7.542;2023-11-21T02:31:52;2.00;;;0.83;;
4754;SDS011;2391;47.212;7.542;2023-11-21T02:34:20;5.67;;;0.50;;
4754;SDS011;2391;47.212;7.542;2023-11-21T02:36:47;12.70;;;1.10;;
4754;SDS011;2391;47.212;7.542;2023-11-21T02:39:16;1.80;;;0.60;;
4754;SDS011;2391;47.212;7.542;2023-11-21T02:41:43;1.70;;;0.50;;
4754;SDS011;2391;47.212;7.542;2023-11-21T02:44:09;1.53;;;0.50;;
4754;SDS011;2391;47.212;7.542;2023-11-21T02:46:36;1.47;;;0.60;;
4754;SDS011;2391;47.212;7.542;2023-11-21T02:49:03;2.20;;;0.60;;
4754;SDS011;2391;47.212;7.542;2023-11-21T02:51:31;5.07;;;0.73;;
4754;SDS011;2391;47.212;7.542;2023-11-21T02:53:57;1.77;;;0.60;;
4754;SDS011;2391;47.212;7.542;2023-11-21T02:56:25;1.00;;;0.60;;
4754;SDS011;2391;47.212;7.542;2023-11-21T02:58:56;2.87;;;0.80;;
4754;SDS011;2391;47.212;7.542;2023-11-21T03:01:23;2.40;;;0.70;;
4754;SDS011;2391;47.212;7.542;2023-11-21T03:03:49;2.20;;;0.80;;
4754;SDS011;2391;47.212;7.542;2023-11-21T03:06:17;1.90;;;0.80;;
4754;SDS011;2391;47.212;7.542;2023-11-21T03:08:43;9.20;;;0.80;;
4754;SDS011;2391;47.212;7.542;2023-11-21T03:11:09;3.40;;;1.00;;
4754;SDS011;2391;47.212;7.542;2023-11-21T03:13:35;7.30;;;0.80;;
4754;SDS011;2391;47.212;7.542;2023-11-21T03:16:01;1.70;;;0.70;;
4754;SDS011;2391;47.212;7.542;2023-11-21T03:18:26;1.87;;;0.70;;
4754;SDS011;2391;47.212;7.542;2023-11-21T03:20:54;3.07;;;0.90;;
4754;SDS011;2391;47.212;7.542;2023-11-21T03:23:20;3.23;;;0.70;;
4754;SDS011;2391;47.212;7.542;2023-11-21T03:25:46;3.17;;;0.80;;
4754;SDS011;2391;47.212;7.542;2023-11-21T03:28:11;1.47;;;0.67;;
4754;SDS011;2391;47.212;7.542;2023-11-21T03:30:38;5.30;;;1.10;;
4754;SDS011;2391;47.212;7.542;2023-11-21T03:33:04;2.03;;;0.80;;
4754;SDS011;2391;47.212;7.542;2023-11-21T03:35:29;0.70;;;0.67;;
4754;SDS011;2391;47.212;7.542;2023-11-21T03:37:55;1.73;;;0.70;;
4754;SDS011;2391;47.212;7.542;2023-11-21T03:40:21;1.40;;;0.73;;
4754;SDS011;2391;47.212;7.542;2023-11-21T03:42:47;0.70;;;0.40;;
4754;SDS011;2391;47.212;7.542;2023-11-21T03:45:13;1.20;;;0.60;;
4754;SDS011;2391;47.212;7.542;2023-11-21T03:47:41;2.27;;;0.57;;
4754;SDS011;2391;47.212;7.542;2023-11-21T03:50:07;3.83;;;0.70;;
4754;SDS011;2391;47.212;7.542;2023-11-21T03:52:34;0.97;;;0.60;;
4754;SDS011;2391;47.212;7.542;2023-11-21T03:55:01;5.40;;;0.70;;
4754;SDS011;2391;47.212;7.542;2023-11-21T03:57:28;0.97;;;0.50;;
4754;SDS011;2391;47.212;7.542;2023-11-21T03:59:53;1.30;;;0.53;;
4754;SDS011;2391;47.212;7.542;2023-11-21T04:02:19;5.50;;;0.77;;
4754;SDS011;2391;47.212;7.542;2023-11-21T04:04:45;1.27;;;0.70;;
4754;SDS011;2391;47.212;7.542;2023-11-21T04:07:11;2.70;;;0.90;;
4754;SDS011;2391;47.212;7.542;2023-11-21T04:09:39;2.20;;;0.50;;
4754;SDS011;2391;47.212;7.542;2023-11-21T04:12:07;0.50;;;0.50;;
4754;SDS011;2391;47.212;7.542;2023-11-21T04:14:34;1.37;;;0.60;;
4754;SDS011;2391;47.212;7.542;2023-11-21T04:17:00;5.77;;;0.87;;
4754;SDS011;2391;47.212;7.542;2023-11-21T04:19:26;0.70;;;0.50;;
4754;SDS011;2391;47.212;7.542;2023-11-21T04:21:51;3.63;;;0.87;;
4754;SDS011;2391;47.212;7.542;2023-11-21T04:24:17;4.43;;;0.60;;
4754;SDS011;2391;47.212;7.542;2023-11-21T04:26:43;0.70;;;0.60;;
4754;SDS011;2391;47.212;7.542;2023-11-21T04:29:09;1.33;;;0.73;;
4754;SDS011;2391;47.212;7.542;2023-11-21T04:31:35;1.53;;;0.60;;
4754;SDS011;2391;47.212;7.542;2023-11-21T04:34:01;0.87;;;0.70;;
4754;SDS011;2391;47.212;7.542;2023-11-21T04:36:27;2.40;;;0.80;;
4754;SDS011;2391;47.212;7.542;2023-11-21T04:38:55;1.70;;;0.67;;
4754;SDS011;2391;47.212;7.542;2023-11-21T04:41:21;7.77;;;2.00;;
4754;SDS011;2391;47.212;7.542;2023-11-21T04:43:46;4.90;;;0.60;;
4754;SDS011;2391;47.212;7.542;2023-11-21T04:46:12;2.63;;;0.70;;
4754;SDS011;2391;47.212;7.542;2023-11-21T04:48:41;2.20;;;0.60;;
4754;SDS011;2391;47.212;7.542;2023-11-21T04:51:06;1.90;;;0.50;;
4754;SDS011;2391;47.212;7.542;2023-11-21T04:53:32;1.40;;;0.70;;
4754;SDS011;2391;47.212;7.542;2023-11-21T04:55:58;2.57;;;0.70;;
4754;SDS011;2391;47.212;7.542;2023-11-21T04:58:24;5.53;;;0.63;;
4754;SDS011;2391;47.212;7.542;2023-11-21T05:00:49;1.57;;;0.67;;
4754;SDS011;2391;47.212;7.542;2023-11-21T05:03:15;1.80;;;0.60;;
4754;SDS011;2391;47.212;7.542;2023-11-21T05:05:41;0.90;;;0.53;;
4754;SDS011;2391;47.212;7.542;2023-11-21T05:08:07;1.50;;;0.60;;
4754;SDS011;2391;47.212;7.542;2023-11-21T05:10:33;2.43;;;0.90;;
4754;SDS011;2391;47.212;7.542;2023-11-21T05:12:59;1.43;;;0.70;;
4754;SDS011;2391;47.212;7.542;2023-11-21T05:15:25;0.70;;;0.60;;
4754;SDS011;2391;47.212;7.542;2023-11-21T05:17:53;0.83;;;0.70;;
4754;SDS011;2391;47.212;7.542;2023-11-21T05:20:19;2.30;;;0.70;;
4754;SDS011;2391;47.212;7.542;2023-11-21T05:22:46;1.67;;;0.70;;
4754;SDS011;2391;47.212;7.542;2023-11-21T05:25:16;1.03;;;0.80;;
4754;SDS011;2391;47.212;7.542;2023-11-21T05:27:44;3.43;;;1.07;;
4754;SDS011;2391;47.212;7.542;2023-11-21T05:30:13;0.80;;;0.80;;
4754;SDS011;2391;47.212;7.542;2023-11-21T05:32:39;1.07;;;0.60;;
4754;SDS011;2391;47.212;7.542;2023-11-21T05:35:09;2.17;;;0.60;;
4754;SDS011;2391;47.212;7.542;2023-11-21T05:37:36;2.40;;;0.60;;
4754;SDS011;2391;47.212;7.542;2023-11-21T05:40:04;1.83;;;1.00;;
4754;SDS011;2391;47.212;7.542;2023-11-21T05:42:31;3.43;;;0.87;;
4754;SDS011;2391;47.212;7.542;2023-11-21T05:44:58;4.03;;;0.80;;
4754;SDS011;2391;47.212;7.542;2023-11-21T05:47:38;1.30;;;0.60;;
4754;SDS011;2391;47.212;7.542;2023-11-21T05:50:11;2.53;;;0.73;;
4754;SDS011;2391;47.212;7.542;2023-11-21T05:52:37;1.73;;;1.47;;
4754;SDS011;2391;47.212;7.542;2023-11-21T05:55:03;9.07;;;0.83;;
4754;SDS011;2391;47.212;7.542;2023-11-21T05:57:36;1.43;;;0.80;;
4754;SDS011;2391;47.212;7.542;2023-11-21T06:00:08;1.80;;;0.70;;
4754;SDS011;2391;47.212;7.542;2023-11-21T06:02:33;2.63;;;0.70;;
4754;SDS011;2391;47.212;7.542;2023-11-21T06:04:59;1.50;;;1.00;;
4754;SDS011;2391;47.212;7.542;2023-11-21T06:07:25;1.40;;;0.93;;
4754;SDS011;2391;47.212;7.542;2023-11-21T06:09:50;2.97;;;0.90;;
4754;SDS011;2391;47.212;7.542;2023-11-21T06:12:16;1.57;;;0.77;;
4754;SDS011;2391;47.212;7.542;2023-11-21T06:14:42;1.80;;;0.80;;
4754;SDS011;2391;47.212;7.542;2023-11-21T06:17:07;2.93;;;0.70;;
4754;SDS011;2391;47.212;7.542;2023-11-21T06:19:35;1.57;;;1.20;;
4754;SDS011;2391;47.212;7.542;2023-11-21T06:22:00;2.80;;;0.87;;
4754;SDS011;2391;47.212;7.542;2023-11-21T06:24:27;4.20;;;0.90;;
4754;SDS011;2391;47.212;7.542;2023-11-21T06:26:53;3.07;;;0.83;;
4754;SDS011;2391;47.212;7.542;2023-11-21T06:29:19;3.13;;;1.00;;
4754;SDS011;2391;47.212;7.542;2023-11-21T06:31:44;1.87;;;0.80;;
4754;SDS011;2391;47.212;7.542;2023-11-21T06:34:11;4.80;;;1.00;;
4754;SDS011;2391;47.212;7.542;2023-11-21T06:36:37;2.33;;;1.00;;
4754;SDS011;2391;47.212;7.542;2023-11-21T06:39:03;1.93;;;0.90;;
4754;SDS011;2391;47.212;7.542;2023-11-21T06:41:31;1.30;;;1.00;;
4754;SDS011;2391;47.212;7.542;2023-11-21T06:43:56;1.70;;;1.07;;
4754;SDS011;2391;47.212;7.542;2023-11-21T06:46:24;1.10;;;1.00;;
4754;SDS011;2391;47.212;7.542;2023-11-21T06:48:50;3.97;;;1.20;;
4754;SDS011;2391;47.212;7.542;2023-11-21T06:51:15;1.57;;;1.10;;
4754;SDS011;2391;47.212;7.542;2023-11-21T06:53:41;2.50;;;1.57;;
4754;SDS011;2391;47.212;7.542;2023-11-21T06:56:19;1.50;;;1.30;;
4754;SDS011;2391;47.212;7.542;2023-11-21T06:58:45;1.20;;;1.10;;
4754;SDS011;2391;47.212;7.542;2023-11-21T07:01:12;0.90;;;0.90;;
4754;SDS011;2391;47.212;7.542;2023-11-21T07:03:39;2.20;;;1.57;;
4754;SDS011;2391;47.212;7.542;2023-11-21T07:06:06;1.30;;;1.20;;
4754;SDS011;2391;47.212;7.542;2023-11-21T07:08:33;2.93;;;1.33;;
4754;SDS011;2391;47.212;7.542;2023-11-21T07:10:58;1.40;;;1.30;;
4754;SDS011;2391;47.212;7.542;2023-11-21T07:13:24;2.47;;;1.57;;
4754;SDS011;2391;47.212;7.542;2023-11-21T07:15:51;5.23;;;1.30;;
4754;SDS011;2391;47.212;7.542;2023-11-21T07:18:17;2.50;;;1.60;;
4754;SDS011;2391;47.212;7.542;2023-11-21T07:20:43;2.80;;;2.10;;
4754;SDS011;2391;47.212;7.542;2023-11-21T07:23:09;2.37;;;1.90;;
4754;SDS011;2391;47.212;7.542;2023-11-21T07:25:35;5.97;;;1.63;;
4754;SDS011;2391;47.212;7.542;2023-11-21T07:28:01;4.80;;;2.07;;
4754;SDS011;2391;47.212;7.542;2023-11-21T07:30:27;3.03;;;1.50;;
4754;SDS011;2391;47.212;7.542;2023-11-21T07:32:53;2.80;;;1.73;;
4754;SDS011;2391;47.212;7.542;2023-11-21T07:35:19;4.00;;;2.30;;
4754;SDS011;2391;47.212;7.542;2023-11-21T07:37:44;6.33;;;1.57;;
4754;SDS011;2391;47.212;7.542;2023-11-21T07:40:12;1.93;;;1.63;;
4754;SDS011;2391;47.212;7.542;2023-11-21T07:42:37;8.73;;;1.83;;
4754;SDS011;2391;47.212;7.542;2023-11-21T07:45:04;4.73;;;2.00;;
4754;SDS011;2391;47.212;7.542;2023-11-21T07:47:32;7.90;;;1.80;;
4754;SDS011;2391;47.212;7.542;2023-11-21T07:50:00;4.43;;;1.77;;
4754;SDS011;2391;47.212;7.542;2023-11-21T07:52:28;6.43;;;1.70;;
4754;SDS011;2391;47.212;7.542;2023-11-21T07:54:54;1.80;;;1.70;;
4754;SDS011;2391;47.212;7.542;2023-11-21T07:57:19;9.40;;;1.93;;
4754;SDS011;2391;47.212;7.542;2023-11-21T07:59:45;4.10;;;1.50;;
4754;SDS011;2391;47.212;7.542;2023-11-21T08:02:11;1.97;;;1.83;;
4754;SDS011;2391;47.212;7.542;2023-11-21T08:04:37;9.20;;;1.90;;
4754;SDS011;2391;47.212;7.542;2023-11-21T08:07:03;3.07;;;1.80;;
4754;SDS011;2391;47.212;7.542;2023-11-21T08:09:29;2.13;;;1.50;;
4754;SDS011;2391;47.212;7.542;2023-11-21T08:11:55;2.43;;;1.57;;
4754;SDS011;2391;47.212;7.542;2023-11-21T08:14:22;1.97;;;1.30;;
4754;SDS011;2391;47.212;7.542;2023-11-21T08:16:50;1.90;;;1.10;;
4754;SDS011;2391;47.212;7.542;2023-11-21T08:19:15;4.67;;;1.20;;
4754;SDS011;2391;47.212;7.542;2023-11-21T08:21:42;1.93;;;1.30;;
4754;SDS011;2391;47.212;7.542;2023-11-21T08:24:07;1.10;;;1.00;;
4754;SDS011;2391;47.212;7.542;2023-11-21T08:26:35;4.93;;;1.40;;
4754;SDS011;2391;47.212;7.542;2023-11-21T08:29:01;3.80;;;1.10;;
4754;SDS011;2391;47.212;7.542;2023-11-21T08:31:27;7.77;;;1.43;;
4754;SDS011;2391;47.212;7.542;2023-11-21T08:33:54;2.27;;;1.23;;
4754;SDS011;2391;47.212;7.542;2023-11-21T08:36:23;1.20;;;1.10;;
4754;SDS011;2391;47.212;7.542;2023-11-21T08:38:52;4.00;;;1.33;;
4754;SDS011;2391;47.212;7.542;2023-11-21T08:41:17;4.30;;;1.30;;
4754;SDS011;2391;47.212;7.542;2023-11-21T08:43:45;1.77;;;1.20;;
4754;SDS011;2391;47.212;7.542;2023-11-21T08:46:13;12.60;;;1.30;;
4754;SDS011;2391;47.212;7.542;2023-11-21T08:48:40;4.07;;;1.30;;
4754;SDS011;2391;47.212;7.542;2023-11-21T08:51:06;1.57;;;1.20;;
4754;SDS011;2391;47.212;7.542;2023-11-21T08:53:34;2.70;;;1.10;;
4754;SDS011;2391;47.212;7.542;2023-11-21T08:56:01;6.53;;;1.50;;
4754;SDS011;2391;47.212;7.542;2023-11-21T08:58:27;3.10;;;1.17;;
4754;SDS011;2391;47.212;7.542;2023-11-21T09:00:53;2.57;;;1.10;;
4754;SDS011;2391;47.212;7.542;2023-11-21T09:03:19;2.90;;;1.20;;
4754;SDS011;2391;47.212;7.542;2023-11-21T09:05:44;1.90;;;1.50;;
4754;SDS011;2391;47.212;7.542;2023-11-21T09:08:10;5.37;;;1.60;;
4754;SDS011;2391;47.212;7.542;2023-11-21T09:10:36;2.90;;;1.40;;
4754;SDS011;2391;47.212;7.542;2023-11-21T09:13:02;6.83;;;1.00;;
4754;SDS011;2391;47.212;7.542;2023-11-21T09:15:28;1.60;;;1.50;;
4754;SDS011;2391;47.212;7.542;2023-11-21T09:17:54;1.50;;;1.40;;
4754;SDS011;2391;47.212;7.542;2023-11-21T09:20:19;4.00;;;1.20;;
4754;SDS011;2391;47.212;7.542;2023-11-21T09:22:47;3.20;;;1.07;;
4754;SDS011;2391;47.212;7.542;2023-11-21T09:25:13;1.90;;;1.60;;
4754;SDS011;2391;47.212;7.542;2023-11-21T09:27:38;9.83;;;2.53;;
4754;SDS011;2391;47.212;7.542;2023-11-21T09:30:05;5.53;;;2.13;;
4754;SDS011;2391;47.212;7.542;2023-11-21T09:32:34;2.97;;;1.67;;
4754;SDS011;2391;47.212;7.542;2023-11-21T09:35:02;5.67;;;1.73;;
4754;SDS011;2391;47.212;7.542;2023-11-21T09:37:29;4.17;;;1.30;;
4754;SDS011;2391;47.212;7.542;2023-11-21T09:39:56;1.17;;;1.17;;
4754;SDS011;2391;47.212;7.542;2023-11-21T09:42:23;2.93;;;1.50;;
4754;SDS011;2391;47.212;7.542;2023-11-21T09:45:05;1.70;;;1.60;;
4754;SDS011;2391;47.212;7.542;2023-11-21T09:47:33;4.03;;;1.37;;
4754;SDS011;2391;47.212;7.542;2023-11-21T09:50:01;1.53;;;1.43;;
4754;SDS011;2391;47.212;7.542;2023-11-21T09:52:28;2.60;;;1.10;;
4754;SDS011;2391;47.212;7.542;2023-11-21T09:54:54;5.43;;;1.63;;
4754;SDS011;2391;47.212;7.542;2023-11-21T09:57:24;8.97;;;1.70;;
4754;SDS011;2391;47.212;7.542;2023-11-21T09:59:51;2.20;;;1.40;;
4754;SDS011;2391;47.212;7.542;2023-11-21T10:02:23;3.63;;;1.60;;
4754;SDS011;2391;47.212;7.542;2023-11-21T10:04:55;4.20;;;1.30;;
4754;SDS011;2391;47.212;7.542;2023-11-21T10:07:21;1.93;;;1.60;;
4754;SDS011;2391;47.212;7.542;2023-11-21T10:09:48;1.60;;;1.50;;
4754;SDS011;2391;47.212;7.542;2023-11-21T10:12:16;1.80;;;1.70;;
4754;SDS011;2391;47.212;7.542;2023-11-21T10:14:42;5.17;;;1.97;;
4754;SDS011;2391;47.212;7.542;2023-11-21T10:17:10;1.50;;;1.40;;
4754;SDS011;2391;47.212;7.542;2023-11-21T10:19:38;4.23;;;1.40;;
4754;SDS011;2391;47.212;7.542;2023-11-21T10:22:05;5.00;;;1.10;;
4754;SDS011;2391;47.212;7.542;2023-11-21T10:24:32;2.87;;;1.13;;
4754;SDS011;2391;47.212;7.542;2023-11-21T10:26:58;2.20;;;0.90;;
4754;SDS011;2391;47.212;7.542;2023-11-21T10:29:29;2.67;;;0.73;;
4754;SDS011;2391;47.212;7.542;2023-11-21T10:31:55;7.10;;;1.60;;
4754;SDS011;2391;47.212;7.542;2023-11-21T10:34:23;1.13;;;1.03;;
4754;SDS011;2391;47.212;7.542;2023-11-21T10:36:49;1.57;;;0.90;;
4754;SDS011;2391;47.212;7.542;2023-11-21T10:39:21;4.90;;;1.50;;
4754;SDS011;2391;47.212;7.542;2023-11-21T10:41:49;2.80;;;1.40;;
4754;SDS011;2391;47.212;7.542;2023-11-21T10:44:16;4.03;;;1.70;;
4754;SDS011;2391;47.212;7.542;2023-11-21T10:46:49;1.30;;;1.20;;
4754;SDS011;2391;47.212;7.542;2023-11-21T10:49:19;1.50;;;1.30;;
4754;SDS011;2391;47.212;7.542;2023-11-21T10:51:45;1.30;;;1.20;;
4754;SDS011;2391;47.212;7.542;2023-11-21T10:54:16;1.63;;;1.27;;
4754;SDS011;2391;47.212;7.542;2023-11-21T10:56:46;1.60;;;1.50;;
4754;SDS011;2391;47.212;7.542;2023-11-21T10:59:18;3.07;;;1.90;;
4754;SDS011;2391;47.212;7.542;2023-11-21T11:01:46;1.93;;;1.43;;
4754;SDS011;2391;47.212;7.542;2023-11-21T11:04:15;2.17;;;1.53;;
4754;SDS011;2391;47.212;7.542;2023-11-21T11:06:51;1.33;;;1.20;;
4754;SDS011;2391;47.212;7.542;2023-11-21T11:09:20;1.23;;;1.13;;
4754;SDS011;2391;47.212;7.542;2023-11-21T11:11:46;1.30;;;1.20;;
4754;SDS011;2391;47.212;7.542;2023-11-21T11:14:13;1.77;;;0.70;;
4754;SDS011;2391;47.212;7.542;2023-11-21T11:16:40;0.70;;;0.70;;
4754;SDS011;2391;47.212;7.542;2023-11-21T11:19:11;1.80;;;0.60;;
4754;SDS011;2391;47.212;7.542;2023-11-21T11:21:53;1.20;;;0.90;;
4754;SDS011;2391;47.212;7.542;2023-11-21T11:24:44;1.00;;;0.90;;
4754;SDS011;2391;47.212;7.542;2023-11-21T11:27:23;2.40;;;0.87;;
4754;SDS011;2391;47.212;7.542;2023-11-21T11:32:55;2.50;;;0.90;;
4754;SDS011;2391;47.212;7.542;2023-11-21T11:38:09;1.17;;;0.70;;
4754;SDS011;2391;47.212;7.542;2023-11-21T11:40:40;1.70;;;0.90;;
4754;SDS011;2391;47.212;7.542;2023-11-21T11:43:07;0.67;;;0.60;;
4754;SDS011;2391;47.212;7.542;2023-11-21T11:45:33;0.70;;;0.70;;
4754;SDS011;2391;47.212;7.542;2023-11-21T11:48:01;1.00;;;0.70;;
4754;SDS011;2391;47.212;7.542;2023-11-21T11:50:29;0.60;;;0.60;;
4754;SDS011;2391;47.212;7.542;2023-11-21T11:52:55;0.73;;;0.60;;
4754;SDS011;2391;47.212;7.542;2023-11-21T11:55:24;0.50;;;0.50;;
4754;SDS011;2391;47.212;7.542;2023-11-21T11:57:51;2.50;;;0.90;;
4754;SDS011;2391;47.212;7.542;2023-11-21T12:00:21;1.23;;;0.73;;
4754;SDS011;2391;47.212;7.542;2023-11-21T12:02:51;0.80;;;0.40;;
4754;SDS011;2391;47.212;7.542;2023-11-21T12:05:23;0.50;;;0.50;;
4754;SDS011;2391;47.212;7.542;2023-11-21T12:07:50;0.30;;;0.30;;
4754;SDS011;2391;47.212;7.542;2023-11-21T12:10:20;0.30;;;0.30;;
4754;SDS011;2391;47.212;7.542;2023-11-21T12:12:50;0.20;;;0.20;;
4754;SDS011;2391;47.212;7.542;2023-11-21T12:15:20;0.30;;;0.30;;
4754;SDS011;2391;47.212;7.542;2023-11-21T12:17:46;0.30;;;0.30;;
4754;SDS011;2391;47.212;7.542;2023-11-21T12:20:14;0.30;;;0.30;;
4754;SDS011;2391;47.212;7.542;2023-11-21T12:22:46;0.30;;;0.30;;
4754;SDS011;2391;47.212;7.542;2023-11-21T12:25:16;0.30;;;0.30;;
4754;SDS011;2391;47.212;7.542;2023-11-21T12:27:48;0.30;;;0.30;;
4754;SDS011;2391;47.212;7.542;2023-11-21T12:30:14;0.30;;;0.30;;
4754;SDS011;2391;47.212;7.542;2023-11-21T12:32:43;0.37;;;0.33;;
4754;SDS011;2391;47.212;7.542;2023-11-21T12:35:11;0.33;;;0.30;;
4754;SDS011;2391;47.212;7.542;2023-11-21T12:37:37;0.30;;;0.30;;
4754;SDS011;2391;47.212;7.542;2023-11-21T12:40:05;0.30;;;0.30;;
4754;SDS011;2391;47.212;7.542;2023-11-21T12:42:33;0.37;;;0.37;;
4754;SDS011;2391;47.212;7.542;2023-11-21T12:45:09;0.23;;;0.23;;
4754;SDS011;2391;47.212;7.542;2023-11-21T12:47:44;0.30;;;0.30;;
4754;SDS011;2391;47.212;7.542;2023-11-21T12:50:19;0.30;;;0.30;;
4754;SDS011;2391;47.212;7.542;2023-11-21T12:52:49;0.33;;;0.30;;
4754;SDS011;2391;47.212;7.542;2023-11-21T12:55:17;0.40;;;0.40;;
4754;SDS011;2391;47.212;7.542;2023-11-21T12:57:47;6.50;;;0.47;;
4754;SDS011;2391;47.212;7.542;2023-11-21T13:00:19;1.90;;;0.40;;
4754;SDS011;2391;47.212;7.542;2023-11-21T13:02:56;0.30;;;0.30;;
4754;SDS011;2391;47.212;7.542;2023-11-21T13:05:28;0.30;;;0.30;;
4754;SDS011;2391;47.212;7.542;2023-11-21T13:07:53;0.30;;;0.30;;
4754;SDS011;2391;47.212;7.542;2023-11-21T13:10:22;0.60;;;0.40;;
4754;SDS011;2391;47.212;7.542;2023-11-21T13:12:50;0.30;;;0.30;;
4754;SDS011;2391;47.212;7.542;2023-11-21T13:15:17;0.30;;;0.30;;
4754;SDS011;2391;47.212;7.542;2023-11-21T13:17:43;1.43;;;0.40;;
4754;SDS011;2391;47.212;7.542;2023-11-21T13:20:11;0.30;;;0.30;;
4754;SDS011;2391;47.212;7.542;2023-11-21T13:22:56;0.30;;;0.30;;
4754;SDS011;2391;47.212;7.542;2023-11-21T13:25:22;0.30;;;0.30;;
4754;SDS011;2391;47.212;7.542;2023-11-21T13:27:49;1.13;;;0.30;;
4754;SDS011;2391;47.212;7.542;2023-11-21T13:30:16;0.30;;;0.30;;
4754;SDS011;2391;47.212;7.542;2023-11-21T13:32:43;0.40;;;0.40;;
4754;SDS011;2391;47.212;7.542;2023-11-21T13:35:10;0.30;;;0.30;;
4754;SDS011;2391;47.212;7.542;2023-11-21T13:37:37;1.90;;;0.40;;
4754;SDS011;2391;47.212;7.542;2023-11-21T13:40:04;0.40;;;0.40;;
4754;SDS011;2391;47.212;7.542;2023-11-21T13:42:32;0.30;;;0.30;;
4754;SDS011;2391;47.212;7.542;2023-11-21T13:44:58;0.30;;;0.30;;
4754;SDS011;2391;47.212;7.542;2023-11-21T13:47:24;1.33;;;0.30;;
4754;SDS011;2391;47.212;7.542;2023-11-21T13:49:51;0.40;;;0.40;;
4754;SDS011;2391;47.212;7.542;2023-11-21T13:52:18;0.53;;;0.53;;
4754;SDS011;2391;47.212;7.542;2023-11-21T13:54:46;0.83;;;0.60;;
4754;SDS011;2391;47.212;7.542;2023-11-21T13:57:12;0.50;;;0.43;;
4754;SDS011;2391;47.212;7.542;2023-11-21T13:59:39;0.40;;;0.33;;
4754;SDS011;2391;47.212;7.542;2023-11-21T14:02:04;0.40;;;0.40;;
4754;SDS011;2391;47.212;7.542;2023-11-21T14:04:32;0.87;;;0.70;;
4754;SDS011;2391;47.212;7.542;2023-11-21T14:07:00;3.30;;;0.60;;
4754;SDS011;2391;47.212;7.542;2023-11-21T14:09:27;0.40;;;0.33;;
4754;SDS011;2391;47.212;7.542;2023-11-21T14:11:55;0.40;;;0.40;;
4754;SDS011;2391;47.212;7.542;2023-11-21T14:14:23;0.50;;;0.30;;
4754;SDS011;2391;47.212;7.542;2023-11-21T14:16:50;2.57;;;0.40;;
4754;SDS011;2391;47.212;7.542;2023-11-21T14:19:17;0.90;;;0.50;;
4754;SDS011;2391;47.212;7.542;2023-11-21T14:21:44;1.23;;;0.43;;
4754;SDS011;2391;47.212;7.542;2023-11-21T14:24:11;0.80;;;0.50;;
4754;SDS011;2391;47.212;7.542;2023-11-21T14:26:42;0.40;;;0.40;;
4754;SDS011;2391;47.212;7.542;2023-11-21T14:29:10;0.40;;;0.40;;
4754;SDS011;2391;47.212;7.542;2023-11-21T14:31:39;0.30;;;0.30;;
4754;SDS011;2391;47.212;7.542;2023-11-21T14:34:05;0.50;;;0.40;;
4754;SDS011;2391;47.212;7.542;2023-11-21T14:36:32;0.30;;;0.30;;
4754;SDS011;2391;47.212;7.542;2023-11-21T14:38:59;0.40;;;0.40;;
4754;SDS011;2391;47.212;7.542;2023-11-21T14:41:25;0.33;;;0.33;;
4754;SDS011;2391;47.212;7.542;2023-11-21T14:43:53;0.40;;;0.40;;
4754;SDS011;2391;47.212;7.542;2023-11-21T14:46:22;0.30;;;0.30;;
4754;SDS011;2391;47.212;7.542;2023-11-21T14:48:47;0.30;;;0.30;;
4754;SDS011;2391;47.212;7.542;2023-11-21T14:51:15;0.30;;;0.30;;
4754;SDS011;2391;47.212;7.542;2023-11-21T14:53:45;1.60;;;0.60;;
4754;SDS011;2391;47.212;7.542;2023-11-21T14:56:23;0.40;;;0.40;;
4754;SDS011;2391;47.212;7.542;2023-11-21T14:58:50;0.60;;;0.30;;
4754;SDS011;2391;47.212;7.542;2023-11-21T15:01:16;0.30;;;0.30;;
4754;SDS011;2391;47.212;7.542;2023-11-21T15:03:44;1.20;;;0.37;;
4754;SDS011;2391;47.212;7.542;2023-11-21T15:06:11;0.60;;;0.50;;
4754;SDS011;2391;47.212;7.542;2023-11-21T15:11:33;0.50;;;0.30;;
4754;SDS011;2391;47.212;7.542;2023-11-21T15:14:00;0.30;;;0.30;;
4754;SDS011;2391;47.212;7.542;2023-11-21T15:16:28;0.30;;;0.30;;
4754;SDS011;2391;47.212;7.542;2023-11-21T15:18:53;0.30;;;0.30;;
4754;SDS011;2391;47.212;7.542;2023-11-21T15:21:20;0.30;;;0.30;;
4754;SDS011;2391;47.212;7.542;2023-11-21T15:23:47;0.40;;;0.40;;
4754;SDS011;2391;47.212;7.542;2023-11-21T15:26:13;0.40;;;0.30;;